Terminal Aerodrome Forecast
Issued by NWS Jacksonville, FL

Home | Current Version | Previous Version | Text Only | Print | Product List | Glossary On
Versions: 1 2 3 4 5 6 7 8 9 10 11 12 13 14 15 16
717
FTUS42 KJAX 201726
TAFJAX
TAF
KJAX 201726Z 2018/2118 05018G28KT P6SM BKN025 OVC035
     FM202300 05015G25KT P6SM OVC025
     FM210100 05011KT P6SM BKN015 OVC025
     FM211300 07018G26KT P6SM OVC025=

USA.gov is the U.S. government's official web portal to all federal, state and local government web resources and services.